Terminal Aerodrome Forecast
Issued by NWS

Home | Current Version | Previous Version | Text Only | Print | Product List | Glossary On
Versions: 1 2 3 4 5 6 7 8 9 10 11 12 13 14
000
FTUS42 TJSJ 300100 CCA
TAFJPS
TAF COR
TJPS 300149Z 3000/3024 07005KT P6SM FEW030 SCT060
     FM300330 04002KT P6SM FEW030
     FM301500 15012KT P6SM SCT030
      AMD NOT SKED TIL 300300=

USA.gov is the U.S. government's official web portal to all federal, state and local government web resources and services.